createdAt,value
2018-03-01T00:01:08.836Z,42.57
2018-03-01T00:03:36.545Z,37.17
2018-03-01T00:06:04.154Z,29.97
2018-03-01T00:08:31.787Z,38.13
2018-03-01T00:11:00.204Z,37.97
2018-03-01T00:13:28.674Z,37.37
2018-03-01T00:15:56.336Z,39.40
2018-03-01T00:18:24.041Z,39.57
2018-03-01T00:20:51.676Z,34.13
2018-03-01T00:23:19.460Z,40.97
2018-03-01T00:25:47.113Z,41.77
2018-03-01T00:28:14.734Z,35.03
2018-03-01T00:30:42.444Z,29.10
2018-03-01T00:33:10.107Z,44.33
2018-03-01T00:35:37.763Z,38.83
2018-03-01T00:38:05.427Z,40.50
2018-03-01T00:40:33.624Z,42.93
2018-03-01T00:43:01.252Z,31.87
2018-03-01T00:45:29.069Z,37.67
2018-03-01T00:47:57.843Z,32.13
2018-03-01T00:50:25.653Z,34.67
2018-03-01T00:52:53.337Z,42.73
2018-03-01T00:55:20.978Z,24.67
2018-03-01T00:57:48.588Z,36.07
2018-03-01T01:00:17.031Z,43.57
2018-03-01T01:02:45.498Z,31.83
2018-03-01T01:05:13.269Z,35.87
2018-03-01T01:07:40.889Z,35.50
2018-03-01T01:10:09.307Z,36.70
2018-03-01T01:12:37.025Z,38.17
2018-03-01T01:15:05.432Z,38.43
2018-03-01T01:17:33.148Z,42.50
2018-03-01T01:20:01.551Z,36.33
2018-03-01T01:22:29.933Z,29.03
2018-03-01T01:24:57.555Z,31.63
2018-03-01T01:27:25.340Z,31.47
2018-03-01T01:29:53.020Z,34.37
2018-03-01T01:32:20.661Z,36.47
2018-03-01T01:34:49.107Z,43.00
2018-03-01T01:37:16.803Z,35.33
2018-03-01T01:39:45.281Z,32.23
2018-03-01T01:42:13.762Z,36.30
2018-03-01T01:44:41.537Z,37.87
2018-03-01T01:47:09.994Z,30.17
2018-03-01T01:49:37.640Z,28.27
2018-03-01T01:52:05.263Z,37.83
2018-03-01T01:54:32.955Z,32.10
2018-03-01T01:57:00.651Z,39.90
2018-03-01T01:59:28.379Z,37.97
2018-03-01T02:01:56.008Z,39.47
2018-03-01T02:04:23.666Z,39.60
2018-03-01T02:06:51.303Z,26.93
2018-03-01T02:09:19.687Z,24.00
2018-03-01T02:11:48.109Z,30.63
2018-03-01T02:14:15.837Z,42.60
2018-03-01T02:16:44.307Z,41.17
2018-03-01T02:19:12.743Z,34.00
2018-03-01T02:21:40.424Z,37.53
2018-03-01T02:24:08.030Z,33.70
2018-03-01T02:26:35.619Z,38.60
2018-03-01T02:29:03.515Z,31.03
2018-03-01T02:31:31.148Z,38.50
2018-03-01T02:33:58.858Z,36.23
2018-03-01T02:36:33.157Z,32.03
2018-03-01T02:39:00.882Z,33.10
2018-03-01T02:41:28.524Z,33.23
2018-03-01T02:43:56.153Z,27.93
2018-03-01T02:46:24.569Z,40.10
2018-03-01T02:48:52.300Z,33.87
2018-03-01T02:51:20.688Z,26.80
2018-03-01T02:53:48.402Z,37.80
2018-03-01T02:56:16.282Z,38.87
2018-03-01T02:58:44.880Z,31.87
2018-03-01T03:01:12.530Z,28.67
2018-03-01T03:03:40.230Z,33.17
2018-03-01T03:06:08.608Z,32.47
2018-03-01T03:08:36.400Z,49.27
2018-03-01T03:11:04.025Z,40.47
2018-03-01T03:13:31.717Z,37.97
2018-03-01T03:15:59.321Z,39.90
2018-03-01T03:18:26.980Z,34.60
2018-03-01T03:20:54.733Z,30.10
2018-03-01T03:23:22.720Z,29.77
2018-03-01T03:25:50.324Z,34.33
2018-03-01T03:28:18.075Z,26.67
2018-03-01T03:30:45.857Z,35.53
2018-03-01T03:33:13.590Z,36.93
2018-03-01T03:35:42.029Z,35.67
2018-03-01T03:38:09.752Z,35.10
2018-03-01T03:40:37.426Z,36.07
2018-03-01T03:43:05.023Z,26.63
2018-03-01T03:45:32.942Z,34.27
2018-03-01T03:48:00.541Z,37.20
2018-03-01T03:50:28.242Z,29.67
2018-03-01T03:52:56.718Z,35.27
2018-03-01T03:55:24.384Z,40.37
2018-03-01T03:57:52.802Z,33.80
2018-03-01T04:00:20.395Z,36.27
2018-03-01T04:02:48.052Z,28.37
2018-03-01T04:05:15.704Z,27.37
2018-03-01T04:07:43.442Z,38.77
2018-03-01T04:10:11.104Z,40.60
2018-03-01T04:12:38.861Z,34.23
2018-03-01T04:15:06.653Z,40.17
2018-03-01T04:17:34.315Z,37.67
2018-03-01T04:20:01.982Z,33.77
2018-03-01T04:22:29.602Z,28.63
2018-03-01T04:24:57.374Z,38.87
2018-03-01T04:27:25.032Z,31.93
2018-03-01T04:29:52.693Z,40.37
2018-03-01T04:32:20.372Z,28.57
2018-03-01T04:34:47.987Z,36.60
2018-03-01T04:37:16.659Z,37.73
2018-03-01T04:39:45.745Z,42.23
2018-03-01T04:42:13.900Z,32.70
2018-03-01T04:44:41.537Z,38.00
2018-03-01T04:47:09.897Z,39.97
2018-03-01T04:49:38.296Z,47.30
2018-03-01T04:52:05.932Z,41.80
2018-03-01T04:54:35.814Z,33.30
2018-03-01T04:57:03.451Z,44.83
2018-03-01T04:59:31.509Z,33.57
2018-03-01T05:01:59.141Z,38.83
2018-03-01T05:04:27.527Z,35.23
2018-03-01T05:06:55.211Z,37.93
2018-03-01T05:09:22.839Z,35.60
2018-03-01T05:11:51.283Z,37.20
2018-03-01T05:14:18.904Z,32.17
2018-03-01T05:16:46.548Z,35.23
2018-03-01T05:19:14.170Z,37.07
2018-03-01T05:21:41.945Z,37.53
2018-03-01T05:24:09.549Z,36.73
2018-03-01T05:26:37.249Z,39.80
2018-03-01T05:29:04.892Z,39.43
2018-03-01T05:31:32.620Z,32.27
2018-03-01T05:34:00.271Z,37.10
2018-03-01T05:36:27.980Z,32.83
2018-03-01T05:38:55.870Z,38.07
2018-03-01T05:41:23.469Z,28.43
2018-03-01T05:43:51.153Z,39.83
2018-03-01T05:46:18.781Z,38.67
2018-03-01T05:48:47.173Z,33.23
2018-03-01T05:51:15.027Z,32.83
2018-03-01T05:53:43.434Z,31.30
2018-03-01T05:56:11.305Z,29.40
2018-03-01T05:58:38.936Z,35.97
2018-03-01T06:01:07.446Z,33.47
2018-03-01T06:03:35.105Z,39.27
2018-03-01T06:06:02.773Z,40.67
2018-03-01T06:08:30.424Z,34.17
2018-03-01T06:10:58.972Z,31.33
2018-03-01T06:13:27.354Z,39.40
2018-03-01T06:15:55.770Z,31.13
2018-03-01T06:18:23.407Z,38.40
2018-03-01T06:20:51.137Z,38.63
2018-03-01T06:23:18.801Z,40.77
2018-03-01T06:25:46.830Z,39.67
2018-03-01T06:28:14.437Z,41.43
2018-03-01T06:30:42.073Z,39.23
2018-03-01T06:33:09.746Z,41.30
2018-03-01T06:35:37.408Z,32.47
2018-03-01T06:38:05.045Z,34.67
2018-03-01T06:40:32.703Z,36.10
2018-03-01T06:43:00.450Z,40.83
2018-03-01T06:45:28.149Z,43.63
2018-03-01T06:47:55.904Z,33.90
2018-03-01T06:50:23.582Z,42.80
2018-03-01T06:52:52.042Z,38.10
2018-03-01T06:55:19.742Z,33.17
2018-03-01T06:57:47.485Z,36.50
2018-03-01T07:00:15.153Z,42.70
2018-03-01T07:02:42.889Z,42.17
2018-03-01T07:05:10.527Z,27.53
2018-03-01T07:07:38.164Z,29.40
2018-03-01T07:10:07.328Z,32.73
2018-03-01T07:12:34.970Z,34.37
2018-03-01T07:15:02.609Z,30.93
2018-03-01T07:17:30.386Z,33.00
2018-03-01T07:19:58.157Z,42.93
2018-03-01T07:22:25.798Z,35.80
2018-03-01T07:24:53.821Z,41.30
2018-03-01T07:27:22.526Z,41.13
2018-03-01T07:29:51.620Z,35.20
2018-03-01T07:32:20.099Z,38.00
2018-03-01T07:34:48.536Z,47.17
2018-03-01T07:37:16.161Z,35.73
2018-03-01T07:39:43.894Z,38.67
2018-03-01T07:42:12.433Z,37.37
2018-03-01T07:44:40.178Z,42.40
2018-03-01T07:47:09.847Z,36.17
2018-03-01T07:49:38.261Z,35.00
2018-03-01T07:52:05.868Z,36.10
2018-03-01T07:54:33.607Z,54.17
2018-03-01T07:57:01.248Z,38.00
2018-03-01T07:59:28.989Z,32.87
2018-03-01T08:01:57.596Z,28.43
2018-03-01T08:04:25.274Z,37.80
2018-03-01T08:06:53.022Z,23.00
2018-03-01T08:09:20.686Z,29.73
2018-03-01T08:11:48.552Z,35.93
2018-03-01T08:14:16.174Z,37.33
2018-03-01T08:16:44.729Z,38.63
2018-03-01T08:19:12.316Z,36.43
2018-03-01T08:21:40.818Z,31.90
2018-03-01T08:24:08.500Z,42.17
2018-03-01T08:26:36.111Z,40.27
2018-03-01T08:29:04.000Z,43.43
2018-03-01T08:31:32.436Z,42.50
2018-03-01T08:34:00.067Z,33.83
2018-03-01T08:36:27.764Z,37.67
2018-03-01T08:38:56.974Z,40.40
2018-03-01T08:41:24.741Z,33.37
2018-03-01T08:43:52.387Z,35.73
2018-03-01T08:46:20.012Z,28.30
2018-03-01T08:48:47.675Z,39.13
2018-03-01T08:51:15.396Z,44.30
2018-03-01T08:53:43.898Z,33.17
2018-03-01T08:56:11.645Z,33.13
2018-03-01T08:58:40.094Z,39.30
2018-03-01T09:01:08.749Z,31.30
2018-03-01T09:03:36.376Z,40.03
2018-03-01T09:06:05.152Z,42.47
2018-03-01T09:08:33.534Z,33.60
2018-03-01T09:11:01.970Z,35.63
2018-03-01T09:13:29.673Z,38.17
2018-03-01T09:15:58.614Z,43.13
2018-03-01T09:18:26.228Z,38.97
2018-03-01T09:20:53.950Z,39.87
2018-03-01T09:23:22.310Z,38.60
2018-03-01T09:25:50.082Z,40.60
2018-03-01T09:28:18.489Z,40.67
2018-03-01T09:30:46.125Z,40.83
2018-03-01T09:33:13.773Z,38.80
2018-03-01T09:35:41.479Z,40.53
2018-03-01T09:38:09.822Z,38.53
2018-03-01T09:40:37.444Z,41.30
2018-03-01T09:43:05.209Z,36.73
2018-03-01T09:45:33.767Z,34.43
2018-03-01T09:48:01.396Z,39.90
2018-03-01T09:50:30.096Z,40.93
2018-03-01T09:52:57.739Z,35.67
2018-03-01T09:55:25.403Z,29.87
2018-03-01T09:57:53.792Z,36.47
2018-03-01T10:00:22.560Z,40.20
2018-03-01T10:02:50.219Z,39.07
2018-03-01T10:05:17.856Z,40.17
2018-03-01T10:07:46.419Z,33.40
2018-03-01T10:10:14.823Z,38.67
2018-03-01T10:12:42.547Z,40.03
2018-03-01T10:15:10.219Z,36.57
2018-03-01T10:17:38.686Z,39.07
2018-03-01T10:20:06.383Z,39.00
2018-03-01T10:22:34.126Z,38.23
2018-03-01T10:25:02.520Z,37.37
2018-03-01T10:27:30.293Z,36.17
2018-03-01T10:29:57.954Z,36.73
2018-03-01T10:32:25.577Z,43.90
2018-03-01T10:34:53.246Z,34.13
2018-03-01T10:37:22.549Z,40.37
2018-03-01T10:39:50.979Z,39.73
2018-03-01T10:42:18.686Z,37.07
2018-03-01T10:44:46.330Z,41.67
2018-03-01T10:47:14.054Z,40.27
2018-03-01T10:49:41.821Z,40.00
2018-03-01T10:52:09.437Z,42.57
2018-03-01T10:54:37.148Z,41.53
2018-03-01T10:57:05.318Z,38.27
2018-03-01T10:59:32.974Z,39.37
2018-03-01T11:02:00.636Z,37.50
2018-03-01T11:04:28.329Z,43.63
2018-03-01T11:06:56.014Z,38.50
2018-03-01T11:09:25.505Z,38.97
2018-03-01T11:11:53.231Z,41.07
2018-03-01T11:14:21.937Z,37.17
2018-03-01T11:16:51.774Z,38.80
2018-03-01T11:19:19.431Z,39.93
2018-03-01T11:21:47.117Z,36.90
2018-03-01T11:24:16.096Z,36.70
2018-03-01T11:26:43.729Z,39.13
2018-03-01T11:29:11.804Z,37.97
2018-03-01T11:31:40.324Z,35.73
2018-03-01T11:34:10.375Z,36.73
2018-03-01T11:36:38.093Z,37.87
2018-03-01T11:39:05.864Z,37.87
2018-03-01T11:41:35.510Z,40.77
2018-03-01T11:44:03.145Z,39.73
2018-03-01T11:46:30.765Z,37.73
2018-03-01T11:48:58.426Z,44.13
2018-03-01T11:51:26.101Z,40.77
2018-03-01T11:53:53.723Z,38.43
2018-03-01T11:56:21.330Z,44.30
2018-03-01T11:58:49.143Z,41.47
2018-03-01T12:01:16.781Z,40.20
2018-03-01T12:03:44.453Z,38.17
2018-03-01T12:06:12.115Z,41.77
2018-03-01T12:08:39.850Z,38.13
2018-03-01T12:11:08.283Z,40.43
2018-03-01T12:13:35.925Z,44.30
2018-03-01T12:16:03.727Z,39.37
2018-03-01T12:18:31.740Z,38.13
2018-03-01T12:21:00.133Z,42.30
2018-03-01T12:23:28.017Z,41.53
2018-03-01T12:25:55.715Z,40.37
2018-03-01T12:28:23.437Z,44.03
2018-03-01T12:30:51.244Z,41.27
2018-03-01T12:33:18.947Z,44.27
2018-03-01T12:35:46.578Z,43.77
2018-03-01T12:38:15.897Z,40.10
2018-03-01T12:40:44.298Z,37.33
2018-03-01T12:43:12.042Z,39.97
2018-03-01T12:45:40.131Z,40.87
2018-03-01T12:48:07.786Z,39.67
2018-03-01T12:50:35.411Z,40.63
2018-03-01T12:53:03.907Z,39.60
2018-03-01T12:55:31.602Z,41.60
2018-03-01T12:57:59.295Z,42.33
2018-03-01T13:00:27.038Z,38.60
2018-03-01T13:02:54.679Z,45.90
2018-03-01T13:05:22.306Z,42.23
2018-03-01T13:07:49.988Z,40.47
2018-03-01T13:10:17.611Z,41.97
2018-03-01T13:12:45.250Z,45.60
2018-03-01T13:15:12.935Z,45.07
2018-03-01T13:17:40.657Z,43.20
2018-03-01T13:20:08.296Z,42.00
2018-03-01T13:22:35.960Z,40.00
2018-03-01T13:25:04.425Z,39.40
2018-03-01T13:27:32.809Z,43.60
2018-03-01T13:30:01.191Z,36.80
2018-03-01T13:32:40.376Z,41.10
2018-03-01T13:35:08.815Z,42.07
2018-03-01T13:37:36.427Z,45.23
2018-03-01T13:40:04.057Z,46.17
2018-03-01T13:42:42.523Z,42.30
2018-03-01T13:45:10.178Z,45.03
2018-03-01T13:47:39.836Z,38.30
2018-03-01T13:50:07.479Z,44.00
2018-03-01T13:52:35.138Z,43.77
2018-03-01T13:55:02.904Z,42.07
2018-03-01T13:57:30.577Z,42.23
2018-03-01T13:59:58.314Z,41.63
2018-03-01T14:02:25.949Z,42.50
2018-03-01T14:04:53.703Z,49.07
2018-03-01T14:07:22.980Z,44.20
2018-03-01T14:09:50.799Z,47.57
2018-03-01T14:12:28.354Z,39.37
2018-03-01T14:14:56.832Z,40.63
2018-03-01T14:17:24.563Z,42.47
2018-03-01T14:19:57.748Z,43.73
2018-03-01T14:22:30.951Z,43.10
2018-03-01T14:24:58.619Z,40.47
2018-03-01T14:27:28.731Z,43.60
2018-03-01T14:32:56.667Z,41.07
2018-03-01T14:35:25.055Z,43.33
2018-03-01T14:37:52.716Z,44.77
2018-03-01T14:40:20.347Z,41.73
2018-03-01T14:42:48.868Z,47.20
2018-03-01T14:45:16.560Z,47.60
2018-03-01T14:47:45.413Z,45.17
2018-03-01T14:50:13.132Z,45.63
2018-03-01T14:52:40.808Z,40.23
2018-03-01T14:55:08.433Z,42.17
2018-03-01T14:57:36.078Z,41.93
2018-03-01T15:00:03.768Z,47.73
2018-03-01T15:02:31.544Z,46.23
2018-03-01T15:04:59.194Z,46.37
2018-03-01T15:07:26.848Z,48.27
2018-03-01T15:09:54.578Z,44.07
2018-03-01T15:12:22.270Z,43.90
2018-03-01T15:14:50.489Z,44.67
2018-03-01T15:17:18.928Z,46.63
2018-03-01T15:19:46.573Z,43.80
2018-03-01T15:22:14.239Z,46.70
2018-03-01T15:24:41.989Z,45.93
2018-03-01T15:27:09.692Z,47.13
2018-03-01T15:29:37.365Z,48.40
2018-03-01T15:32:05.736Z,46.43
2018-03-01T15:34:33.497Z,53.97
2018-03-01T15:37:01.151Z,47.93
2018-03-01T15:39:29.135Z,47.00
2018-03-01T15:41:56.768Z,48.17
2018-03-01T15:44:24.514Z,45.93
2018-03-01T15:46:52.336Z,43.67
2018-03-01T15:49:20.781Z,46.70
2018-03-01T15:51:48.519Z,47.90
2018-03-01T15:54:16.166Z,50.03
2018-03-01T15:56:43.869Z,48.73
2018-03-01T15:59:11.569Z,50.60
2018-03-01T16:01:40.052Z,51.50
2018-03-01T16:04:08.556Z,52.50
2018-03-01T16:06:36.265Z,49.20
2018-03-01T16:09:03.991Z,47.67
2018-03-01T16:11:31.639Z,51.47
2018-03-01T16:13:59.304Z,45.03
2018-03-01T16:16:26.909Z,45.90
2018-03-01T16:18:54.591Z,41.27
2018-03-01T16:21:23.110Z,54.07
2018-03-01T16:23:50.838Z,52.63
2018-03-01T16:26:19.231Z,40.33
2018-03-01T16:28:46.951Z,49.10
2018-03-01T16:31:14.685Z,47.17
2018-03-01T16:33:42.645Z,52.10
2018-03-01T16:36:10.305Z,49.07
2018-03-01T16:38:37.968Z,50.10
2018-03-01T16:41:05.723Z,44.10
2018-03-01T16:43:33.470Z,52.63
2018-03-01T16:46:01.976Z,54.87
2018-03-01T16:48:29.590Z,53.80
2018-03-01T16:50:58.125Z,53.07
2018-03-01T16:53:25.887Z,52.97
2018-03-01T16:55:53.543Z,54.37
2018-03-01T16:58:21.178Z,51.40
2018-03-01T17:00:49.792Z,51.40
2018-03-01T17:03:17.575Z,54.57
2018-03-01T17:05:45.340Z,55.13
2018-03-01T17:08:13.110Z,49.97
2018-03-01T17:10:40.760Z,51.63
2018-03-01T17:13:08.466Z,54.03
2018-03-01T17:15:36.936Z,49.30
2018-03-01T17:18:04.586Z,52.70
2018-03-01T17:20:32.306Z,58.67
2018-03-01T17:22:59.946Z,57.20
2018-03-01T17:25:27.637Z,49.37
2018-03-01T17:27:55.471Z,54.33
2018-03-01T17:30:23.503Z,53.87
2018-03-01T17:32:51.665Z,55.50
2018-03-01T17:35:19.348Z,53.10
2018-03-01T17:37:47.186Z,52.77
2018-03-01T17:40:15.034Z,53.70
2018-03-01T17:42:42.784Z,58.10
2018-03-01T17:45:10.498Z,49.00
2018-03-01T17:47:38.221Z,51.97
2018-03-01T17:50:05.884Z,57.03
2018-03-01T17:52:33.592Z,52.10
2018-03-01T17:55:01.368Z,59.03
2018-03-01T17:57:29.821Z,57.53
2018-03-01T17:59:59.702Z,56.70
2018-03-01T18:02:27.496Z,57.67
2018-03-01T18:04:55.093Z,55.00
2018-03-01T18:07:23.518Z,58.10
2018-03-01T18:09:51.236Z,49.30
2018-03-01T18:12:19.745Z,54.97
2018-03-01T18:14:47.411Z,54.70
2018-03-01T18:17:15.078Z,59.23
2018-03-01T18:19:42.765Z,60.63
2018-03-01T18:22:10.449Z,56.23
2018-03-01T18:24:38.087Z,56.20
2018-03-01T18:27:05.772Z,59.03
2018-03-01T18:29:33.489Z,56.00
2018-03-01T18:32:01.171Z,60.60
2018-03-01T18:34:28.867Z,55.47
2018-03-01T18:36:56.531Z,54.50
2018-03-01T18:39:24.984Z,53.00
2018-03-01T18:41:52.620Z,62.70
2018-03-01T18:44:20.307Z,55.03
2018-03-01T18:46:48.044Z,55.70
2018-03-01T18:49:15.823Z,57.37
2018-03-01T18:54:18.285Z,58.63
2018-03-01T18:56:46.158Z,60.77
2018-03-01T18:59:13.815Z,60.33
2018-03-01T19:01:41.510Z,52.87
2018-03-01T19:04:09.276Z,50.00
2018-03-01T19:06:37.179Z,48.13
2018-03-01T19:09:06.568Z,50.80
2018-03-01T19:11:34.348Z,50.50
2018-03-01T19:14:02.807Z,52.63
2018-03-01T19:16:30.629Z,54.10
2018-03-01T19:18:58.325Z,58.93
2018-03-01T19:21:26.920Z,64.23
2018-03-01T19:23:54.821Z,48.27
2018-03-01T19:26:22.542Z,55.83
2018-03-01T19:28:50.363Z,54.23
2018-03-01T19:31:19.186Z,51.23
2018-03-01T19:33:46.916Z,52.03
2018-03-01T19:36:14.675Z,49.40
2018-03-01T19:38:42.310Z,54.90
2018-03-01T19:41:10.114Z,57.63
2018-03-01T19:43:37.815Z,52.70
2018-03-01T19:46:05.488Z,59.00
2018-03-01T19:48:33.994Z,61.20
2018-03-01T19:51:01.684Z,55.07
2018-03-01T19:53:31.578Z,56.40
2018-03-01T19:55:59.319Z,56.33
2018-03-01T19:58:27.025Z,55.70
2018-03-01T20:00:54.739Z,57.30
2018-03-01T20:03:23.264Z,49.37
2018-03-01T20:05:50.906Z,48.97
2018-03-01T20:08:18.627Z,51.23
2018-03-01T20:10:46.275Z,57.63
2018-03-01T20:13:14.160Z,52.67
2018-03-01T20:15:42.016Z,62.17
2018-03-01T20:18:10.625Z,54.17
2018-03-01T20:20:38.319Z,53.73
2018-03-01T20:23:06.123Z,55.37
2018-03-01T20:25:34.263Z,56.07
2018-03-01T20:28:02.044Z,55.90
2018-03-01T20:30:30.002Z,52.97
2018-03-01T20:32:58.360Z,54.33
2018-03-01T20:35:26.028Z,55.43
2018-03-01T20:37:54.544Z,57.20
2018-03-01T20:40:22.244Z,51.73
2018-03-01T20:42:50.804Z,58.90
2018-03-01T20:45:18.473Z,64.40
2018-03-01T20:47:46.373Z,52.67
2018-03-01T20:50:14.099Z,53.07
2018-03-01T20:52:41.909Z,55.67
2018-03-01T20:55:09.633Z,56.97
2018-03-01T20:57:38.478Z,55.40
2018-03-01T21:00:06.314Z,54.17
2018-03-01T21:02:34.061Z,53.47
2018-03-01T21:05:02.627Z,57.53
2018-03-01T21:07:30.694Z,54.67
2018-03-01T21:09:58.366Z,46.03
2018-03-01T21:12:26.969Z,56.47
2018-03-01T21:14:54.635Z,53.83
2018-03-01T21:17:22.527Z,57.83
2018-03-01T21:19:50.170Z,40.60
2018-03-01T21:22:17.917Z,51.37
2018-03-01T21:24:46.397Z,55.47
2018-03-01T21:27:14.117Z,60.40
2018-03-01T21:29:41.790Z,61.13
2018-03-01T21:32:10.436Z,58.73
2018-03-01T21:34:38.138Z,56.73
2018-03-01T21:37:06.028Z,57.67
2018-03-01T21:39:34.550Z,55.47
2018-03-01T21:42:02.201Z,56.97
2018-03-01T21:44:30.100Z,58.73
2018-03-01T21:47:07.434Z,53.60
2018-03-01T21:49:35.892Z,57.90
2018-03-01T21:52:04.620Z,57.70
2018-03-01T21:54:32.537Z,58.13
2018-03-01T21:57:00.286Z,51.87
2018-03-01T21:59:27.942Z,47.77
2018-03-01T22:01:55.655Z,56.67
2018-03-01T22:04:23.277Z,56.20
2018-03-01T22:06:51.170Z,57.73
2018-03-01T22:09:18.781Z,63.13
2018-03-01T22:11:46.501Z,57.93
2018-03-01T22:14:15.154Z,63.33
2018-03-01T22:16:43.099Z,58.00
2018-03-01T22:19:11.004Z,61.20
2018-03-01T22:21:38.620Z,54.83
2018-03-01T22:24:06.250Z,57.53
2018-03-01T22:26:34.070Z,58.37
2018-03-01T22:29:01.866Z,62.47
2018-03-01T22:31:29.559Z,58.47
2018-03-01T22:33:57.295Z,50.57
2018-03-01T22:36:25.919Z,59.50
2018-03-01T22:38:53.608Z,57.40
2018-03-01T22:41:21.233Z,53.80
2018-03-01T22:43:48.996Z,61.30
2018-03-01T22:46:16.721Z,61.80
2018-03-01T22:48:45.376Z,57.73
2018-03-01T22:51:13.025Z,55.43
2018-03-01T22:53:41.320Z,59.73
2018-03-01T22:56:09.004Z,61.40
2018-03-01T22:58:37.504Z,65.97
2018-03-01T23:01:05.157Z,56.73
2018-03-01T23:03:33.610Z,59.33
2018-03-01T23:06:01.241Z,58.93
2018-03-01T23:08:28.876Z,60.47
2018-03-01T23:10:57.344Z,58.43
2018-03-01T23:13:25.991Z,62.57
2018-03-01T23:15:53.959Z,57.53
2018-03-01T23:18:21.617Z,60.53
2018-03-01T23:20:49.403Z,57.53
2018-03-01T23:23:17.070Z,60.83
2018-03-01T23:25:46.665Z,59.43
2018-03-01T23:28:14.283Z,60.13
2018-03-01T23:30:41.933Z,59.00
2018-03-01T23:33:09.528Z,56.00
2018-03-01T23:35:37.286Z,51.37
2018-03-01T23:38:04.959Z,63.00
2018-03-01T23:40:32.579Z,56.93
2018-03-01T23:43:00.249Z,63.80
2018-03-01T23:45:27.912Z,58.77
2018-03-01T23:47:55.576Z,60.93
2018-03-01T23:50:23.274Z,59.67
2018-03-01T23:52:51.239Z,51.40
2018-03-01T23:55:18.881Z,55.60
2018-03-01T23:57:46.485Z,59.10
